Time;durP1;ratioP1;P1;durP2;ratioP2;P2;SDS_P1;SDS_P2;PMS_P1;PMS_P2;Temp;Humidity;BMP_temperature;BMP_pressure;BME280_temperature;BME280_humidity;BME280_pressure;Samples;Min_cycle;Max_cycle;Signal;HPM_P1;HPM_P2
2021/10/29 00:01:36;;;;;;;18.98;11.65;;;7.30;99.90;;;;;;5133149;28;20090;-77
2021/10/29 00:04:03;;;;;;;15.07;9.20;;;7.30;99.90;;;;;;5125637;28;20127;-78
2021/10/29 00:06:30;;;;;;;14.95;8.90;;;7.30;99.90;;;;;;5112396;28;20134;-77
2021/10/29 00:08:57;;;;;;;13.80;8.68;;;7.20;99.90;;;;;;5112527;28;20052;-77
2021/10/29 00:11:24;;;;;;;11.40;7.55;;;7.10;99.90;;;;;;5112188;28;20493;-79
2021/10/29 00:13:53;;;;;;;12.65;7.63;;;7.00;99.90;;;;;;5115873;28;20079;-78
2021/10/29 00:16:20;;;;;;;11.80;7.70;;;6.90;99.90;;;;;;5116549;28;20111;-77
2021/10/29 00:18:47;;;;;;;12.38;7.60;;;6.80;99.90;;;;;;5116884;28;20477;-78
2021/10/29 00:21:14;;;;;;;11.45;7.53;;;6.80;99.90;;;;;;5116407;28;20139;-78
2021/10/29 00:23:41;;;;;;;11.15;6.47;;;6.70;99.90;;;;;;5116833;28;20079;-77
2021/10/29 00:26:08;;;;;;;11.15;6.78;;;6.70;99.90;;;;;;5116068;28;20127;-78
2021/10/29 00:28:36;;;;;;;10.68;7.35;;;6.80;99.90;;;;;;5116768;28;20130;-78
2021/10/29 00:31:04;;;;;;;10.95;7.20;;;6.70;99.90;;;;;;5116157;28;20043;-78
2021/10/29 00:33:31;;;;;;;10.93;7.38;;;6.60;99.90;;;;;;5116559;28;20135;-78
2021/10/29 00:35:58;;;;;;;9.68;6.85;;;6.50;99.90;;;;;;5116528;28;20131;-78
2021/10/29 00:38:26;;;;;;;10.75;6.72;;;6.50;99.90;;;;;;5116610;28;20465;-78
2021/10/29 00:40:53;;;;;;;11.30;7.30;;;6.40;99.90;;;;;;5115441;28;20133;-79
2021/10/29 00:43:20;;;;;;;11.23;7.63;;;6.40;99.90;;;;;;5116811;28;20104;-78
2021/10/29 00:45:48;;;;;;;12.50;8.15;;;6.30;99.90;;;;;;5115859;28;20475;-79
2021/10/29 00:48:17;;;;;;;10.50;7.32;;;6.20;99.90;;;;;;5115984;28;20043;-80
2021/10/29 00:50:44;;;;;;;11.30;6.95;;;6.20;99.90;;;;;;5116635;28;20063;-81
2021/10/29 00:53:11;;;;;;;12.23;7.88;;;6.20;99.90;;;;;;5116366;28;20498;-80
2021/10/29 00:55:39;;;;;;;12.90;7.85;;;6.20;99.90;;;;;;5115723;28;20083;-81
2021/10/29 00:58:06;;;;;;;13.23;7.97;;;6.20;99.90;;;;;;5116170;28;20094;-80
2021/10/29 01:00:33;;;;;;;11.88;7.43;;;6.20;99.90;;;;;;5115694;28;20121;-80
2021/10/29 01:03:00;;;;;;;13.10;8.02;;;6.20;99.90;;;;;;5116027;28;20131;-81
2021/10/29 01:05:30;;;;;;;14.15;8.35;;;6.20;99.90;;;;;;5116077;28;20487;-79
2021/10/29 01:07:59;;;;;;;12.15;7.63;;;6.10;99.90;;;;;;5115742;28;20060;-80
2021/10/29 01:10:30;;;;;;;11.18;7.63;;;6.00;99.90;;;;;;5115732;28;20050;-83
2021/10/29 01:12:58;;;;;;;11.82;7.63;;;5.90;99.90;;;;;;5115765;28;20035;-80
2021/10/29 01:15:25;;;;;;;12.68;8.20;;;5.90;99.90;;;;;;5115601;28;20074;-82
2021/10/29 01:17:52;;;;;;;12.45;8.20;;;5.80;99.90;;;;;;5115151;28;20043;-81
2021/10/29 01:20:22;;;;;;;10.25;6.40;;;5.70;99.90;;;;;;5115473;28;20082;-80
2021/10/29 01:22:49;;;;;;;13.10;7.57;;;5.70;99.90;;;;;;5115565;28;20090;-80
2021/10/29 01:25:16;;;;;;;11.77;6.72;;;5.70;99.90;;;;;;5114638;28;20127;-80
2021/10/29 01:27:44;;;;;;;11.60;8.15;;;5.70;99.90;;;;;;5115136;28;20100;-80
2021/10/29 01:30:12;;;;;;;11.60;7.28;;;5.80;99.90;;;;;;5115052;28;20083;-80
2021/10/29 01:32:40;;;;;;;12.73;7.93;;;5.80;99.90;;;;;;5115313;28;20083;-81
2021/10/29 01:35:09;;;;;;;13.25;8.00;;;5.80;99.90;;;;;;5114729;28;20470;-80
2021/10/29 01:37:38;;;;;;;10.77;7.22;;;5.80;99.90;;;;;;5114540;28;20679;-80
2021/10/29 01:40:08;;;;;;;10.23;7.03;;;5.80;99.90;;;;;;5114461;28;20048;-80
2021/10/29 01:42:36;;;;;;;11.32;7.07;;;5.80;99.90;;;;;;5114786;28;20083;-79
2021/10/29 01:45:05;;;;;;;8.82;6.07;;;5.80;99.90;;;;;;5114778;28;20476;-82
2021/10/29 01:47:33;;;;;;;11.23;6.53;;;5.80;99.90;;;;;;5115581;28;20104;-81
2021/10/29 01:50:00;;;;;;;10.80;7.25;;;5.90;99.90;;;;;;5116036;28;20055;-81
2021/10/29 01:52:28;;;;;;;9.73;6.65;;;5.90;99.90;;;;;;5116142;28;20134;-81
2021/10/29 01:54:57;;;;;;;10.23;7.30;;;6.00;99.90;;;;;;5115763;28;20051;-81
2021/10/29 01:57:25;;;;;;;11.40;7.13;;;6.00;99.90;;;;;;5097349;28;20182;-82
2021/10/29 01:59:52;;;;;;;10.77;7.15;;;6.00;99.90;;;;;;5125693;27;20108;-81
2021/10/29 02:02:20;;;;;;;10.27;6.97;;;6.00;99.90;;;;;;5097225;28;21457;-81
2021/10/29 02:04:47;;;;;;;10.93;7.40;;;6.10;99.90;;;;;;5096147;28;20840;-80
2021/10/29 02:07:14;;;;;;;11.82;7.88;;;6.10;99.90;;;;;;5115050;28;20159;-80
2021/10/29 02:09:41;;;;;;;10.85;7.30;;;6.00;99.90;;;;;;5114910;28;20138;-81
2021/10/29 02:12:10;;;;;;;10.82;7.20;;;5.90;99.90;;;;;;5079875;28;20130;-81
2021/10/29 02:14:37;;;;;;;12.48;7.85;;;5.70;99.90;;;;;;5114386;28;20126;-82
2021/10/29 02:17:05;;;;;;;12.40;7.40;;;5.70;99.90;;;;;;5114516;28;20149;-80
2021/10/29 02:19:32;;;;;;;11.18;7.13;;;5.50;99.90;;;;;;5114177;28;20281;-83
2021/10/29 02:21:59;;;;;;;10.85;7.20;;;5.50;99.90;;;;;;5114598;28;20134;-82
2021/10/29 02:24:27;;;;;;;9.48;6.70;;;5.50;99.90;;;;;;5114444;28;20143;-82
2021/10/29 02:26:54;;;;;;;8.45;6.20;;;5.40;99.90;;;;;;5113985;28;20139;-80
2021/10/29 02:29:22;;;;;;;8.05;5.82;;;5.30;99.90;;;;;;5113863;28;20086;-80
2021/10/29 02:31:50;;;;;;;6.78;5.00;;;5.30;99.90;;;;;;5114495;28;20143;-79
2021/10/29 02:34:17;;;;;;;7.90;5.72;;;5.20;99.90;;;;;;5113449;28;20127;-80
2021/10/29 02:36:44;;;;;;;9.45;6.20;;;5.20;99.90;;;;;;5113272;28;20130;-81
2021/10/29 02:39:11;;;;;;;9.75;6.88;;;5.20;99.90;;;;;;5114250;28;20826;-79
2021/10/29 02:41:38;;;;;;;8.77;5.90;;;5.20;99.90;;;;;;5113848;28;20079;-79
2021/10/29 02:44:06;;;;;;;7.00;4.85;;;5.20;99.90;;;;;;5113467;28;20130;-79
2021/10/29 02:46:36;;;;;;;7.10;5.15;;;5.10;99.90;;;;;;5113822;28;20126;-79
2021/10/29 02:49:03;;;;;;;7.43;5.35;;;5.10;99.90;;;;;;5113068;28;20044;-79
2021/10/29 02:51:30;;;;;;;6.97;5.22;;;5.10;99.90;;;;;;5113644;28;20501;-80
2021/10/29 02:53:57;;;;;;;7.57;5.55;;;5.00;99.90;;;;;;5113350;28;20054;-80
2021/10/29 02:56:25;;;;;;;6.72;4.97;;;4.90;99.90;;;;;;5113180;28;20083;-79
2021/10/29 02:58:52;;;;;;;6.72;4.70;;;4.90;99.90;;;;;;5094516;28;20139;-81
2021/10/29 03:01:21;;;;;;;7.10;4.72;;;4.80;99.90;;;;;;5113880;28;20079;-82
2021/10/29 03:03:49;;;;;;;6.13;4.28;;;4.80;99.90;;;;;;5110505;28;20071;-81
2021/10/29 03:06:16;;;;;;;6.10;4.72;;;4.80;99.90;;;;;;5111442;28;20131;-82
2021/10/29 03:08:44;;;;;;;8.13;5.13;;;4.80;99.90;;;;;;5109180;28;20138;-83
2021/10/29 03:11:11;;;;;;;6.53;4.60;;;4.70;99.90;;;;;;5110814;28;20083;-84
2021/10/29 03:13:38;;;;;;;6.18;4.40;;;4.70;99.90;;;;;;5110092;28;20104;-82
2021/10/29 03:16:08;;;;;;;6.78;4.40;;;4.70;99.90;;;;;;5110678;28;20398;-82
2021/10/29 03:18:35;;;;;;;6.50;4.57;;;4.60;99.90;;;;;;5109332;28;20116;-82
2021/10/29 03:21:04;;;;;;;6.47;4.25;;;4.70;99.90;;;;;;5110207;28;20047;-81
2021/10/29 03:23:31;;;;;;;6.70;4.45;;;4.70;99.90;;;;;;5110237;28;20047;-81
2021/10/29 03:25:58;;;;;;;7.35;4.60;;;4.70;99.90;;;;;;5110483;27;20073;-82
2021/10/29 03:28:25;;;;;;;7.65;5.05;;;4.80;99.90;;;;;;5110284;28;20090;-80
2021/10/29 03:30:52;;;;;;;6.65;4.65;;;4.90;99.90;;;;;;5127689;27;20130;-80
2021/10/29 03:33:19;;;;;;;7.28;4.60;;;4.90;99.90;;;;;;5121068;27;20079;-82
2021/10/29 03:35:47;;;;;;;7.20;4.55;;;4.90;99.90;;;;;;5110428;28;20048;-80
2021/10/29 03:38:39;;;;;;;8.63;4.75;;;4.90;99.90;;;;;;5109414;28;20138;-79
2021/10/29 03:41:08;;;;;;;7.10;4.50;;;4.90;99.90;;;;;;5107957;28;20055;-78
2021/10/29 03:43:38;;;;;;;8.05;5.40;;;4.90;99.90;;;;;;5108935;28;20086;-77
2021/10/29 03:46:09;;;;;;;8.05;4.88;;;4.90;99.90;;;;;;5109453;28;20105;-80
2021/10/29 03:48:43;;;;;;;8.10;5.35;;;4.90;99.90;;;;;;5108652;28;20060;-79
2021/10/29 03:51:15;;;;;;;7.73;5.03;;;4.80;99.90;;;;;;5109458;28;20112;-79
2021/10/29 03:53:47;;;;;;;8.60;5.63;;;4.80;99.90;;;;;;5109834;28;20059;-81
2021/10/29 03:56:19;;;;;;;8.23;5.55;;;4.70;99.90;;;;;;5109558;28;20047;-81
2021/10/29 03:58:49;;;;;;;8.23;5.35;;;4.60;99.90;;;;;;5109904;28;20052;-83
2021/10/29 04:01:18;;;;;;;7.88;5.18;;;4.60;99.90;;;;;;5110987;28;20058;-80
2021/10/29 04:03:46;;;;;;;7.82;5.32;;;4.70;99.90;;;;;;5112357;28;20126;-80
2021/10/29 04:06:13;;;;;;;7.32;5.10;;;4.70;99.90;;;;;;5112971;28;20051;-79
2021/10/29 04:08:40;;;;;;;9.27;5.78;;;4.70;99.90;;;;;;5112367;28;20134;-79
2021/10/29 04:11:09;;;;;;;9.40;6.05;;;4.70;99.90;;;;;;5112022;28;20073;-77
2021/10/29 04:13:38;;;;;;;7.70;5.70;;;4.70;99.90;;;;;;5112448;28;20142;-79
2021/10/29 04:16:06;;;;;;;8.60;5.57;;;4.70;99.90;;;;;;5112341;28;20521;-79
2021/10/29 04:18:35;;;;;;;9.50;6.20;;;4.60;99.90;;;;;;5093527;28;20079;-79
2021/10/29 04:21:03;;;;;;;8.68;6.20;;;4.60;99.90;;;;;;5112179;28;20052;-79
2021/10/29 04:23:31;;;;;;;8.43;6.15;;;4.60;99.90;;;;;;5112411;28;20123;-80
2021/10/29 04:25:58;;;;;;;9.15;5.80;;;4.70;99.90;;;;;;5094351;28;20079;-80
2021/10/29 04:28:28;;;;;;;8.93;6.18;;;4.70;99.90;;;;;;5112077;28;20047;-81
2021/10/29 04:30:56;;;;;;;8.98;6.45;;;4.80;99.90;;;;;;5112157;28;20048;-82
2021/10/29 04:33:24;;;;;;;9.73;5.97;;;4.80;99.90;;;;;;5111698;28;20047;-79
2021/10/29 04:35:54;;;;;;;8.35;5.97;;;4.80;99.90;;;;;;5112636;28;20071;-79
2021/10/29 04:38:22;;;;;;;9.02;5.95;;;4.80;99.90;;;;;;5110807;28;20097;-81
2021/10/29 04:40:51;;;;;;;9.10;6.70;;;4.80;99.90;;;;;;5111962;28;20131;-80
2021/10/29 04:43:18;;;;;;;8.93;6.38;;;4.80;99.90;;;;;;5112108;28;20052;-79
2021/10/29 04:45:47;;;;;;;9.15;6.45;;;4.80;99.90;;;;;;5107307;28;20131;-81
2021/10/29 04:48:14;;;;;;;10.20;6.47;;;4.70;99.90;;;;;;5109583;28;20126;-78
2021/10/29 04:50:41;;;;;;;8.80;6.55;;;4.70;99.90;;;;;;5111910;28;20531;-80
2021/10/29 04:53:10;;;;;;;9.05;6.43;;;4.60;99.90;;;;;;5111608;28;20557;-79
2021/10/29 04:55:38;;;;;;;10.50;6.80;;;4.50;99.90;;;;;;5111443;28;20100;-78
2021/10/29 04:58:06;;;;;;;9.60;5.90;;;4.50;99.90;;;;;;5111994;28;20117;-78
2021/10/29 05:00:33;;;;;;;10.05;6.55;;;4.40;99.90;;;;;;5114586;28;20086;-79
2021/10/29 05:03:05;;;;;;;9.07;6.00;;;4.50;99.90;;;;;;5115753;28;20135;-79
2021/10/29 05:05:33;;;;;;;10.80;6.95;;;4.50;99.90;;;;;;5115814;28;20097;-78
2021/10/29 05:08:01;;;;;;;9.65;6.60;;;4.60;99.90;;;;;;5115299;28;20118;-79
2021/10/29 05:10:28;;;;;;;11.27;7.10;;;4.60;99.90;;;;;;5114474;28;20052;-78
2021/10/29 05:12:55;;;;;;;9.93;6.72;;;4.70;99.90;;;;;;5115408;28;20135;-79
2021/10/29 05:15:22;;;;;;;10.77;7.10;;;4.70;99.90;;;;;;5115715;28;20067;-78
2021/10/29 05:17:49;;;;;;;10.43;6.80;;;4.80;99.90;;;;;;5115846;28;20445;-79
2021/10/29 05:20:18;;;;;;;10.25;7.38;;;4.80;99.90;;;;;;5115467;28;20441;-77
2021/10/29 05:22:45;;;;;;;9.90;6.60;;;4.90;99.90;;;;;;5115026;28;20135;-79
2021/10/29 05:25:13;;;;;;;9.63;6.38;;;4.90;99.90;;;;;;5115425;28;20046;-78
2021/10/29 05:27:40;;;;;;;10.10;6.95;;;5.00;99.90;;;;;;5115634;28;20079;-78
2021/10/29 05:30:10;;;;;;;9.75;6.38;;;5.00;99.90;;;;;;5115675;28;20130;-78
2021/10/29 05:32:38;;;;;;;11.90;7.50;;;5.00;99.90;;;;;;5115677;28;20048;-79
2021/10/29 05:35:07;;;;;;;10.65;6.90;;;5.10;99.90;;;;;;5115206;28;20063;-79
2021/10/29 05:37:37;;;;;;;10.52;7.38;;;5.10;99.90;;;;;;5114281;28;20154;-78
2021/10/29 05:40:06;;;;;;;11.05;7.88;;;5.10;99.90;;;;;;5115182;28;20139;-78
2021/10/29 05:42:34;;;;;;;12.07;7.75;;;5.10;99.90;;;;;;5115137;28;20087;-78
2021/10/29 05:45:02;;;;;;;11.30;6.88;;;5.10;99.90;;;;;;5115306;28;20058;-79
2021/10/29 05:47:29;;;;;;;11.82;8.05;;;5.10;99.90;;;;;;5115122;28;20138;-78
2021/10/29 05:49:58;;;;;;;12.10;8.77;;;5.20;99.90;;;;;;5114780;28;20079;-78
2021/10/29 05:52:28;;;;;;;13.82;9.07;;;5.10;99.90;;;;;;5114424;28;20486;-79
2021/10/29 05:55:14;;;;;;;11.43;7.65;;;5.10;99.90;;;;;;5115185;28;20040;-78
2021/10/29 05:57:42;;;;;;;9.65;6.60;;;5.10;99.90;;;;;;5114960;28;20066;-78
2021/10/29 06:00:11;;;;;;;9.65;6.35;;;5.00;99.90;;;;;;5114622;28;20047;-79
2021/10/29 06:02:39;;;;;;;9.40;6.50;;;5.00;99.90;;;;;;5114538;28;20131;-79
2021/10/29 06:05:11;;;;;;;10.45;6.47;;;4.90;99.90;;;;;;5114293;28;20049;-79
2021/10/29 06:07:39;;;;;;;9.95;6.65;;;4.90;99.90;;;;;;5113423;28;20500;-78
2021/10/29 06:10:13;;;;;;;10.50;6.63;;;4.90;99.90;;;;;;5114077;28;20082;-78
2021/10/29 06:12:41;;;;;;;11.48;7.15;;;4.80;99.90;;;;;;5114581;28;20054;-78
2021/10/29 06:15:10;;;;;;;10.32;7.07;;;4.80;99.90;;;;;;5113968;28;20082;-79
2021/10/29 06:17:37;;;;;;;10.90;7.40;;;4.80;99.90;;;;;;5113597;28;20047;-77
2021/10/29 06:20:07;;;;;;;11.98;7.35;;;4.80;99.90;;;;;;5113152;28;20405;-77
2021/10/29 06:22:36;;;;;;;10.90;7.18;;;4.80;99.90;;;;;;5113775;28;20079;-79
2021/10/29 06:25:09;;;;;;;11.25;6.80;;;4.80;99.90;;;;;;5113964;28;20056;-80
2021/10/29 06:30:22;;;;;;;12.75;7.88;;;4.80;99.90;;;;;;5113877;28;20063;-79
2021/10/29 06:32:50;;;;;;;12.52;7.93;;;4.90;99.90;;;;;;5113886;28;20083;-78
2021/10/29 06:35:17;;;;;;;11.85;7.68;;;4.90;99.90;;;;;;5113396;28;20075;-79
2021/10/29 06:37:44;;;;;;;11.25;7.78;;;4.90;99.90;;;;;;5113649;28;20124;-80
2021/10/29 06:40:15;;;;;;;13.45;7.75;;;5.00;99.90;;;;;;5113659;28;20134;-78
2021/10/29 06:42:49;;;;;;;13.98;8.13;;;5.00;99.90;;;;;;5113863;28;20051;-78
2021/10/29 06:45:34;;;;;;;13.40;8.45;;;5.00;99.90;;;;;;5111094;28;20546;-80
2021/10/29 06:48:15;;;;;;;15.07;8.38;;;5.10;99.90;;;;;;5092371;28;20490;-78
2021/10/29 06:59:16;;;;;;;11.02;6.90;;;5.30;99.90;;;;;;5113580;28;19966;-78
2021/10/29 07:01:47;;;;;;;12.18;7.90;;;5.40;99.90;;;;;;5113554;28;20047;-79
2021/10/29 07:39:54;;;;;;;12.55;7.68;;;5.50;99.90;;;;;;5093196;28;19931;-78
2021/10/29 07:40:13;;;;;;;;;;;5.80;99.90;;;;;;5113047;28;20150;-79
2021/10/29 07:42:49;;;;;;;16.73;10.40;;;5.90;99.90;;;;;;5111838;28;20084;-78
2021/10/29 07:45:17;;;;;;;17.15;10.07;;;6.00;99.90;;;;;;5112671;28;20397;-79
2021/10/29 07:47:46;;;;;;;18.02;11.00;;;6.00;99.90;;;;;;5112783;28;20584;-79
2021/10/29 07:50:16;;;;;;;15.40;10.63;;;6.10;99.90;;;;;;5112085;28;20047;-79
2021/10/29 07:52:46;;;;;;;17.60;10.70;;;6.10;99.90;;;;;;5112293;28;20047;-78
2021/10/29 07:55:16;;;;;;;15.93;9.88;;;6.20;99.90;;;;;;5112329;28;20118;-79
2021/10/29 07:57:46;;;;;;;19.33;11.88;;;6.20;99.90;;;;;;5112822;28;20135;-78
2021/10/29 08:00:16;;;;;;;16.63;10.43;;;6.30;99.90;;;;;;5113003;28;20043;-79
2021/10/29 08:02:46;;;;;;;15.90;10.98;;;6.30;99.90;;;;;;5112485;28;20086;-78
2021/10/29 08:05:14;;;;;;;15.65;10.43;;;6.40;99.90;;;;;;5111749;28;20048;-80
2021/10/29 08:07:42;;;;;;;16.23;10.18;;;6.40;99.90;;;;;;5112491;28;20086;-78
2021/10/29 08:10:11;;;;;;;13.82;9.98;;;6.40;99.90;;;;;;5112574;28;20127;-79
2021/10/29 08:12:40;;;;;;;14.80;9.60;;;6.50;99.90;;;;;;5094222;28;20442;-77
2021/10/29 08:15:09;;;;;;;14.85;10.10;;;6.60;99.90;;;;;;5112643;28;20039;-78
2021/10/29 08:17:37;;;;;;;17.70;10.82;;;6.70;99.90;;;;;;5111846;28;20075;-79
2021/10/29 08:20:09;;;;;;;17.05;10.57;;;6.80;99.90;;;;;;5111061;28;20118;-77
2021/10/29 08:22:38;;;;;;;16.35;11.13;;;6.90;99.90;;;;;;5108592;28;20130;-79
2021/10/29 08:25:07;;;;;;;17.52;10.73;;;7.00;99.90;;;;;;5112439;28;20086;-79
2021/10/29 08:27:34;;;;;;;17.52;10.95;;;7.10;99.90;;;;;;5112654;28;20130;-77
2021/10/29 08:30:01;;;;;;;17.00;10.50;;;7.10;99.90;;;;;;5112722;28;20138;-79
2021/10/29 08:32:28;;;;;;;15.25;9.18;;;7.00;99.90;;;;;;5112596;28;20047;-78
2021/10/29 08:34:55;;;;;;;15.10;9.57;;;7.00;99.90;;;;;;5115233;28;20123;-76
2021/10/29 08:37:28;;;;;;;14.25;9.50;;;7.00;99.90;;;;;;5116257;28;20468;-78
2021/10/29 08:39:56;;;;;;;13.60;9.15;;;7.00;99.90;;;;;;5116521;28;20075;-78
2021/10/29 08:42:23;;;;;;;13.20;8.80;;;7.10;99.90;;;;;;5116261;28;20040;-80
2021/10/29 08:44:51;;;;;;;13.90;9.20;;;7.20;99.90;;;;;;5098515;28;20043;-79
2021/10/29 08:47:21;;;;;;;14.52;9.68;;;7.20;99.90;;;;;;5116594;28;20077;-78
2021/10/29 08:49:50;;;;;;;13.15;9.05;;;7.30;99.90;;;;;;5115931;28;20054;-79
2021/10/29 08:52:21;;;;;;;13.73;9.35;;;7.40;99.90;;;;;;5116311;28;20082;-79
2021/10/29 08:54:54;;;;;;;14.88;9.68;;;7.50;99.90;;;;;;5116094;28;20062;-78
2021/10/29 08:57:22;;;;;;;15.07;10.20;;;7.60;99.90;;;;;;5096966;28;20059;-78
2021/10/29 08:59:53;;;;;;;14.35;10.05;;;7.70;99.90;;;;;;5117285;27;20070;-77
2021/10/29 09:02:23;;;;;;;15.18;10.55;;;7.80;99.90;;;;;;5115625;28;20554;-78
2021/10/29 09:04:55;;;;;;;14.13;10.20;;;7.80;99.90;;;;;;5117641;28;19923;-80
2021/10/29 09:07:35;;;;;;;13.57;9.82;;;7.80;99.90;;;;;;5095713;28;20051;-78
2021/10/29 09:32:33;;;;;;;13.40;9.60;;;8.50;99.90;;;;;;5112504;28;20536;-82
2021/10/29 09:35:08;;;;;;;15.10;9.55;;;8.70;99.90;;;;;;5115606;28;20043;-82
2021/10/29 09:37:58;;;;;;;15.75;10.52;;;8.70;99.90;;;;;;5115817;28;20130;-80
2021/10/29 09:40:27;;;;;;;13.98;10.25;;;8.80;99.90;;;;;;5110489;27;20047;-81
2021/10/29 09:43:02;;;;;;;14.55;9.95;;;8.90;99.90;;;;;;5095334;28;20048;-82
2021/10/29 09:45:32;;;;;;;14.30;9.07;;;8.90;99.90;;;;;;5095204;28;20378;-81
2021/10/29 09:48:16;;;;;;;11.63;8.55;;;8.90;99.90;;;;;;5104806;28;20681;-82
2021/10/29 09:50:51;;;;;;;12.77;8.75;;;9.00;99.90;;;;;;5116050;28;20048;-80
2021/10/29 09:53:39;;;;;;;13.60;9.35;;;9.10;99.90;;;;;;5115750;28;20453;-82
2021/10/29 09:56:11;;;;;;;11.63;8.35;;;9.20;99.90;;;;;;5115515;28;20051;-81
2021/10/29 09:58:43;;;;;;;13.20;9.18;;;9.30;99.90;;;;;;5116331;28;20052;-81
2021/10/29 10:01:11;;;;;;;15.15;10.10;;;9.40;99.90;;;;;;5115760;28;20051;-81
2021/10/29 10:03:40;;;;;;;14.18;10.30;;;9.00;99.90;;;;;;5116086;28;20047;-85
2021/10/29 10:06:10;;;;;;;15.52;10.15;;;9.40;99.90;;;;;;5115180;28;20135;-83
2021/10/29 10:08:39;;;;;;;13.48;9.43;;;9.40;99.90;;;;;;5115146;28;20577;-81
2021/10/29 10:11:07;;;;;;;13.55;9.32;;;9.50;99.90;;;;;;5115111;28;20438;-82
2021/10/29 10:13:34;;;;;;;15.40;10.13;;;9.50;99.90;;;;;;5115120;28;20078;-81
2021/10/29 10:16:04;;;;;;;14.18;10.05;;;9.60;99.90;;;;;;5131084;27;20499;-82
2021/10/29 10:18:32;;;;;;;15.45;9.68;;;9.70;99.90;;;;;;5115224;28;20048;-82
2021/10/29 10:21:05;;;;;;;13.02;9.40;;;9.70;99.90;;;;;;5110461;27;20101;-82
2021/10/29 10:23:36;;;;;;;15.77;10.00;;;9.80;99.90;;;;;;5076824;28;20409;-81
2021/10/29 10:29:20;;;;;;;15.57;9.35;;;9.90;99.90;;;;;;5094929;28;20055;-81
2021/10/29 10:46:14;;;;;;;13.13;9.13;;;10.50;99.90;;;;;;5114449;28;20493;-82
2021/10/29 10:48:53;;;;;;;12.80;8.57;;;10.60;99.90;;;;;;5114699;28;20100;-83
2021/10/29 10:54:42;;;;;;;15.52;9.50;;;10.80;99.90;;;;;;5115540;28;20438;-81
2021/10/29 10:57:25;;;;;;;13.82;8.85;;;10.80;99.90;;;;;;5113692;28;20390;-81
2021/10/29 11:00:11;;;;;;;14.07;9.70;;;10.90;99.90;;;;;;5114880;28;20067;-82
2021/10/29 11:11:18;;;;;;;11.63;8.13;;;11.30;99.90;;;;;;5109010;28;20052;-82
2021/10/29 11:13:59;;;;;;;13.43;8.40;;;11.40;99.90;;;;;;5114461;28;20047;-80
2021/10/29 11:16:34;;;;;;;12.00;7.85;;;11.50;99.90;;;;;;5113248;28;20489;-80
2021/10/29 11:19:10;;;;;;;15.13;8.73;;;11.60;99.90;;;;;;5114961;28;20096;-83
2021/10/29 11:21:50;;;;;;;13.77;8.82;;;11.70;99.90;;;;;;5096862;28;20112;-82
2021/10/29 11:24:29;;;;;;;12.50;8.43;;;11.80;99.50;;;;;;5096849;28;20083;-86
2021/10/29 11:27:06;;;;;;;12.40;8.15;;;11.90;99.40;;;;;;5114592;28;20052;-85
2021/10/29 11:29:45;;;;;;;14.00;7.90;;;12.10;99.40;;;;;;5096941;28;20047;-84
2021/10/29 11:32:12;;;;;;;10.30;6.70;;;12.10;99.30;;;;;;5082475;28;20047;-85
2021/10/29 11:34:40;;;;;;;12.20;8.15;;;12.20;99.20;;;;;;5097172;28;20108;-81
2021/10/29 11:37:08;;;;;;;12.43;8.27;;;12.30;98.50;;;;;;5113692;28;20040;-81
2021/10/29 11:39:35;;;;;;;11.15;7.38;;;12.50;98.40;;;;;;5112796;28;20449;-81
2021/10/29 11:42:03;;;;;;;9.75;6.50;;;12.60;98.20;;;;;;5113654;28;20524;-81
2021/10/29 11:44:31;;;;;;;10.00;6.30;;;12.70;98.20;;;;;;5118108;28;20116;-80
2021/10/29 11:46:58;;;;;;;11.15;7.95;;;12.90;98.20;;;;;;5114160;28;20047;-78
2021/10/29 11:49:28;;;;;;;10.52;6.88;;;13.00;97.20;;;;;;5127594;27;20071;-77
2021/10/29 11:51:58;;;;;;;10.70;7.50;;;13.10;96.50;;;;;;5131161;27;20408;-79
2021/10/29 11:54:30;;;;;;;9.85;6.57;;;13.10;96.00;;;;;;5126491;27;20398;-77
2021/10/29 11:57:24;;;;;;;10.70;6.72;;;13.20;96.10;;;;;;5109349;28;20063;-79
2021/10/29 12:00:12;;;;;;;8.55;5.63;;;13.40;95.90;;;;;;5109573;28;20447;-77
2021/10/29 12:05:59;;;;;;;9.20;6.22;;;13.70;95.40;;;;;;5108874;28;20579;-80
2021/10/29 12:08:28;;;;;;;9.23;6.22;;;13.90;94.70;;;;;;5089220;28;20052;-79
2021/10/29 12:11:02;;;;;;;9.48;6.20;;;14.10;94.20;;;;;;5088790;28;20060;-80
2021/10/29 12:13:32;;;;;;;10.25;6.10;;;14.30;93.60;;;;;;5106373;28;20047;-80
2021/10/29 12:15:59;;;;;;;7.85;5.40;;;14.50;93.30;;;;;;5109771;28;20055;-78
2021/10/29 12:18:32;;;;;;;11.00;6.15;;;14.70;93.20;;;;;;5109462;28;20105;-78
2021/10/29 12:21:00;;;;;;;9.77;5.60;;;14.80;92.50;;;;;;5109545;28;20055;-79
2021/10/29 12:23:29;;;;;;;8.27;5.50;;;15.00;92.50;;;;;;5109393;28;20142;-80
2021/10/29 12:26:02;;;;;;;9.93;5.72;;;15.20;91.50;;;;;;5109112;28;20066;-79
2021/10/29 12:28:34;;;;;;;8.35;5.40;;;15.40;90.60;;;;;;5089596;28;20128;-79
2021/10/29 12:31:09;;;;;;;9.23;5.93;;;15.60;90.00;;;;;;5089858;28;20417;-81
2021/10/29 12:33:59;;;;;;;8.50;5.30;;;15.80;87.20;;;;;;5094941;28;20059;-79
2021/10/29 12:36:59;;;;;;;7.40;5.00;;;15.90;87.70;;;;;;5110330;28;20136;-80
2021/10/29 12:53:28;;;;;;;8.38;5.40;;;17.20;77.60;;;;;;5109872;28;20112;-80
2021/10/29 12:59:05;;;;;;;7.47;5.00;;;17.60;76.20;;;;;;5078991;28;20148;-79
2021/10/29 13:01:35;;;;;;;7.35;4.55;;;17.90;74.70;;;;;;5110275;28;20043;-77
2021/10/29 13:04:07;;;;;;;7.00;4.88;;;18.20;73.70;;;;;;5109569;28;20047;-81
2021/10/29 13:06:38;;;;;;;7.40;5.00;;;18.60;70.60;;;;;;5109533;28;20393;-78
2021/10/29 13:09:15;;;;;;;7.63;4.57;;;18.80;69.80;;;;;;5109340;28;20461;-79
2021/10/29 13:11:49;;;;;;;7.32;4.40;;;19.00;68.60;;;;;;5108829;28;20507;-81
2021/10/29 13:14:25;;;;;;;7.07;4.63;;;19.50;67.80;;;;;;5110324;28;20074;-80
2021/10/29 13:16:55;;;;;;;7.68;5.05;;;19.90;65.40;;;;;;5109351;28;20055;-78
2021/10/29 13:19:36;;;;;;;6.55;4.50;;;20.30;63.10;;;;;;5109210;28;20050;-79
2021/10/29 13:36:32;;;;;;;6.45;3.85;;;29.50;43.70;;;;;;5019951;28;20191;-80
2021/10/29 13:50:41;;;;;;;5.75;3.63;;;35.40;35.20;;;;;;5065915;28;20510;-79
2021/10/29 13:53:25;;;;;;;6.03;3.40;;;35.90;34.50;;;;;;5066390;28;20048;-76
2021/10/29 13:58:53;;;;;;;5.35;3.10;;;37.20;33.50;;;;;;5063550;28;20056;-79
2021/10/29 14:16:20;;;;;;;4.40;2.90;;;38.10;32.20;;;;;;5059734;28;20046;-79
2021/10/29 14:29:09;;;;;;;4.07;2.38;;;40.00;29.30;;;;;;5045305;28;20107;-79
2021/10/29 14:31:42;;;;;;;3.75;2.40;;;39.70;29.40;;;;;;5065353;28;20418;-76
2021/10/29 14:34:13;;;;;;;5.03;2.33;;;39.70;29.50;;;;;;5065616;28;20041;-83
2021/10/29 14:36:53;;;;;;;4.75;2.30;;;39.70;29.60;;;;;;5066822;28;20044;-82
2021/10/29 14:39:26;;;;;;;4.97;2.70;;;39.80;29.60;;;;;;5067676;28;20059;-81
2021/10/29 14:42:08;;;;;;;4.50;2.80;;;39.70;29.50;;;;;;5051616;28;20049;-79
2021/10/29 14:44:41;;;;;;;4.30;2.80;;;39.00;29.40;;;;;;5051718;28;20049;-79
2021/10/29 14:47:24;;;;;;;5.77;3.07;;;36.00;29.50;;;;;;5051291;28;20052;-77
2021/10/29 14:49:59;;;;;;;4.90;3.10;;;35.80;29.90;;;;;;5045890;28;20442;-77
2021/10/29 14:53:00;;;;;;;4.72;2.80;;;34.10;30.90;;;;;;5051527;28;20056;-78
2021/10/29 15:03:55;;;;;;;6.20;3.05;;;33.40;33.50;;;;;;5049755;28;20045;-78
2021/10/29 15:17:55;;;;;;;4.78;2.83;;;34.00;33.00;;;;;;5050817;28;20478;-82
2021/10/29 15:26:12;;;;;;;4.20;2.70;;;33.40;33.90;;;;;;5049752;28;20114;-78
2021/10/29 15:28:46;;;;;;;4.82;2.25;;;33.20;34.40;;;;;;5050683;28;20384;-78
2021/10/29 15:31:27;;;;;;;4.78;2.42;;;33.10;35.60;;;;;;5051438;28;20048;-78
2021/10/29 15:42:24;;;;;;;5.45;3.50;;;30.20;38.60;;;;;;5052695;28;20060;-77
2021/10/29 15:45:03;;;;;;;4.25;2.50;;;29.70;38.90;;;;;;5055635;28;20057;-79
2021/10/29 15:47:42;;;;;;;3.53;2.03;;;29.20;39.60;;;;;;5053982;28;20041;-77
2021/10/29 15:50:11;;;;;;;4.05;2.08;;;;;;;;;;5054130;28;20056;-79
2021/10/29 15:52:38;;;;;;;3.70;2.22;;;27.70;41.20;;;;;;5052717;28;20529;-76
2021/10/29 15:55:10;;;;;;;6.20;3.38;;;26.80;42.60;;;;;;5052964;28;20091;-78
2021/10/29 15:57:53;;;;;;;5.05;3.60;;;25.80;43.60;;;;;;5052923;28;20044;-79
2021/10/29 16:00:35;;;;;;;7.30;3.57;;;25.00;45.00;;;;;;5051436;28;20506;-80
2021/10/29 16:03:09;;;;;;;6.35;3.53;;;24.00;45.50;;;;;;5050035;28;20136;-80
2021/10/29 16:19:22;;;;;;;5.75;3.55;;;19.70;54.40;;;;;;5066151;28;20082;-79
2021/10/29 16:21:50;;;;;;;6.22;3.70;;;19.20;55.80;;;;;;5070127;28;20052;-78
2021/10/29 16:24:17;;;;;;;10.57;5.80;;;18.60;56.80;;;;;;5056862;28;20758;-79
2021/10/29 16:26:46;;;;;;;7.93;4.95;;;18.30;57.80;;;;;;5049764;28;20176;-78
2021/10/29 16:29:19;;;;;;;6.50;4.00;;;17.80;58.80;;;;;;5049494;28;20141;-78
2021/10/29 16:31:47;;;;;;;6.55;3.20;;;17.50;60.10;;;;;;5049365;28;20041;-80
2021/10/29 16:34:14;;;;;;;5.70;3.88;;;17.10;61.20;;;;;;5049457;28;20056;-79
2021/10/29 16:36:42;;;;;;;5.90;3.75;;;16.90;61.70;;;;;;5049871;28;20583;-77
2021/10/29 16:39:09;;;;;;;7.43;3.80;;;16.60;62.40;;;;;;5049463;28;20047;-79
2021/10/29 16:41:37;;;;;;;5.68;3.60;;;16.40;63.20;;;;;;5050582;28;20133;-79
2021/10/29 16:44:04;;;;;;;6.63;3.80;;;16.20;64.10;;;;;;5060340;28;20144;-80